createdAt,value
2023-01-21T00:04:00.045Z,31.92
2023-01-21T00:09:03.658Z,32.15
2023-01-21T00:14:07.211Z,32.63
2023-01-21T00:19:12.248Z,29.38
2023-01-21T00:24:15.787Z,30.23
2023-01-21T00:29:20.336Z,27.48
2023-01-21T00:34:25.701Z,29.63
2023-01-21T00:39:29.107Z,30.35
2023-01-21T00:44:32.517Z,30.02
2023-01-21T00:49:37.323Z,31.88
2023-01-21T00:54:40.708Z,30.48
2023-01-21T00:59:44.416Z,30.25
2023-01-21T01:04:49.469Z,28.65
2023-01-21T01:09:52.969Z,28.88
2023-01-21T01:14:56.670Z,28.92
2023-01-21T01:20:01.479Z,28.90
2023-01-21T01:25:05.203Z,27.02
2023-01-21T01:30:10.012Z,26.55
2023-01-21T01:35:15.069Z,26.45
2023-01-21T01:40:18.931Z,25.88
2023-01-21T01:45:22.860Z,27.10
2023-01-21T01:50:31.608Z,32.85
2023-01-21T01:55:37.487Z,35.78
2023-01-21T02:00:40.965Z,36.40
2023-01-21T02:05:47.783Z,32.90
2023-01-21T02:10:54.004Z,33.92
2023-01-21T02:16:12.392Z,31.65
2023-01-21T02:21:55.273Z,30.50
2023-01-21T02:27:29.995Z,29.02
2023-01-21T02:33:04.220Z,28.42
2023-01-21T02:38:14.432Z,28.30
2023-01-21T02:43:22.269Z,25.65
2023-01-21T02:48:33.127Z,23.95
2023-01-21T02:53:38.011Z,22.65
2023-01-21T02:58:45.116Z,20.58
2023-01-21T03:04:06.466Z,23.33
2023-01-21T03:09:20.983Z,21.33
2023-01-21T03:14:46.970Z,21.30
2023-01-21T03:19:54.384Z,20.67
2023-01-21T03:25:02.215Z,19.98
2023-01-21T03:30:11.033Z,18.92
2023-01-21T03:35:23.434Z,16.95
2023-01-21T03:40:33.994Z,17.17
2023-01-21T03:45:42.539Z,16.83
2023-01-21T03:50:50.926Z,17.48
2023-01-21T03:55:55.800Z,17.27
2023-01-21T04:00:59.244Z,18.17
2023-01-21T04:06:03.331Z,19.38
2023-01-21T04:11:08.325Z,20.10
2023-01-21T04:16:12.077Z,20.50
2023-01-21T04:21:15.872Z,18.85
2023-01-21T04:26:20.694Z,19.10
2023-01-21T04:31:24.118Z,17.35
2023-01-21T04:36:27.641Z,18.55
2023-01-21T04:41:32.530Z,18.70
2023-01-21T04:46:35.949Z,20.23
2023-01-21T04:51:39.437Z,18.77
2023-01-21T04:56:44.566Z,16.75
2023-01-21T05:01:47.987Z,16.85
2023-01-21T05:06:52.057Z,19.50
2023-01-21T05:11:56.829Z,22.90
2023-01-21T05:17:00.768Z,20.92
2023-01-21T05:22:04.219Z,22.50
2023-01-21T05:27:09.277Z,22.80
2023-01-21T05:32:12.693Z,21.65
2023-01-21T05:37:16.188Z,22.35
2023-01-21T05:42:21.071Z,21.38
2023-01-21T05:47:24.560Z,20.48
2023-01-21T05:52:27.992Z,22.00
2023-01-21T05:57:35.170Z,23.10
2023-01-21T06:02:39.813Z,20.60
2023-01-21T06:07:43.896Z,22.35
2023-01-21T06:12:51.336Z,22.20
2023-01-21T06:17:54.879Z,22.95
2023-01-21T06:22:58.465Z,23.55
2023-01-21T06:28:03.842Z,22.42
2023-01-21T06:33:07.268Z,22.35
2023-01-21T06:38:10.809Z,25.63
2023-01-21T06:43:15.906Z,23.20
2023-01-21T06:48:19.455Z,20.73
2023-01-21T06:53:22.871Z,20.20
2023-01-21T06:58:27.718Z,21.77
2023-01-21T07:03:31.164Z,20.75
2023-01-21T07:08:35.082Z,21.17
2023-01-21T07:13:39.956Z,20.63
2023-01-21T07:18:43.544Z,20.83
2023-01-21T07:31:11.328Z,18.15
2023-01-21T07:36:15.058Z,17.63
2023-01-21T07:41:18.514Z,17.17
2023-01-21T07:46:24.305Z,15.75
2023-01-21T07:51:27.880Z,16.25
2023-01-21T07:56:31.363Z,17.88
2023-01-21T08:01:36.271Z,17.55
2023-01-21T08:06:41.482Z,17.77
2023-01-21T08:11:45.332Z,17.17
2023-01-21T08:16:50.972Z,17.77
2023-01-21T08:21:54.617Z,16.70
2023-01-21T08:27:00.073Z,16.40
2023-01-21T08:32:05.761Z,16.45
2023-01-21T08:37:09.237Z,16.27
2023-01-21T08:42:13.005Z,17.33
2023-01-21T08:47:18.723Z,13.35
2023-01-21T08:52:23.094Z,11.07
2023-01-21T08:57:28.395Z,10.15
2023-01-21T09:02:34.031Z,10.10
2023-01-21T09:07:38.080Z,10.30
2023-01-21T09:12:41.987Z,11.23
2023-01-21T09:17:47.109Z,11.07
2023-01-21T09:22:50.562Z,10.35
2023-01-21T09:27:54.391Z,12.38
2023-01-21T09:32:59.193Z,12.32
2023-01-21T09:38:02.879Z,14.05
2023-01-21T09:43:15.887Z,15.88
2023-01-21T09:48:30.745Z,14.98
2023-01-21T09:53:42.920Z,17.67
2023-01-21T09:58:53.451Z,18.02
2023-01-21T10:04:03.503Z,15.90
2023-01-21T10:09:31.196Z,19.42
2023-01-21T10:15:05.168Z,15.73
2023-01-21T10:20:18.018Z,15.25
2023-01-21T10:25:29.021Z,14.10
2023-01-21T10:30:37.964Z,13.63
2023-01-21T10:36:07.949Z,11.40
2023-01-21T10:41:27.140Z,11.55
2023-01-21T10:46:39.303Z,10.90
2023-01-21T10:51:51.399Z,11.07
2023-01-21T10:56:59.760Z,8.05
2023-01-21T11:02:12.478Z,7.80
2023-01-21T11:07:20.604Z,7.55
2023-01-21T11:12:25.025Z,7.22
2023-01-21T11:17:35.071Z,8.27
2023-01-21T11:22:51.737Z,6.90
2023-01-21T11:27:55.565Z,7.45
2023-01-21T11:33:15.135Z,6.35
2023-01-21T11:38:33.107Z,6.15
2023-01-21T11:43:41.274Z,5.05
2023-01-21T11:48:44.858Z,5.50
2023-01-21T11:53:49.695Z,4.93
2023-01-21T11:58:53.218Z,6.28
2023-01-21T12:04:00.950Z,6.20
2023-01-21T12:09:08.330Z,6.20
2023-01-21T12:14:22.724Z,5.63
2023-01-21T12:19:49.843Z,5.53
2023-01-21T12:25:14.871Z,5.53
2023-01-21T12:30:26.294Z,5.53
2023-01-21T12:35:34.209Z,5.20
2023-01-21T12:40:46.977Z,5.47
2023-01-21T12:45:54.627Z,5.72
2023-01-21T12:51:02.938Z,5.63
2023-01-21T12:56:19.124Z,5.53
2023-01-21T13:01:40.602Z,6.28
2023-01-21T13:06:54.086Z,5.57
2023-01-21T13:12:05.643Z,5.45
2023-01-21T13:17:18.065Z,5.75
2023-01-21T13:22:35.171Z,6.17
2023-01-21T13:27:47.592Z,6.65
2023-01-21T13:32:59.655Z,7.33
2023-01-21T13:38:16.154Z,6.60
2023-01-21T13:43:34.820Z,7.05
2023-01-21T13:49:19.182Z,7.72
2023-01-21T13:54:57.312Z,7.07
2023-01-21T14:00:08.133Z,8.02
2023-01-21T14:05:15.670Z,8.88
2023-01-21T14:10:26.605Z,8.18
2023-01-21T14:15:46.279Z,7.95
2023-01-21T14:21:08.129Z,8.35
2023-01-21T14:26:29.635Z,8.70
2023-01-21T14:31:38.239Z,7.88
2023-01-21T14:36:48.222Z,7.88
2023-01-21T14:41:56.593Z,8.40
2023-01-21T14:47:24.043Z,8.40
2023-01-21T14:52:31.949Z,8.20
2023-01-21T14:57:38.897Z,9.13
2023-01-21T15:02:47.006Z,8.48
2023-01-21T15:08:00.562Z,7.85
2023-01-21T15:13:07.573Z,7.63
2023-01-21T15:18:35.226Z,8.13
2023-01-21T15:23:40.403Z,11.23
2023-01-21T15:28:45.397Z,11.90
2023-01-21T15:33:54.863Z,10.43
2023-01-21T15:39:02.309Z,12.15
2023-01-21T15:44:19.299Z,13.10
2023-01-21T15:49:43.111Z,12.20
2023-01-21T16:00:13.948Z,9.20
2023-01-21T16:05:27.964Z,10.85
2023-01-21T16:10:38.621Z,10.10
2023-01-21T16:15:53.636Z,9.00
2023-01-21T16:21:02.667Z,9.05
2023-01-21T16:26:06.598Z,10.15
2023-01-21T16:31:10.814Z,10.77
2023-01-21T16:36:16.126Z,11.73
2023-01-21T16:41:27.635Z,11.45
2023-01-21T16:46:34.661Z,10.02
2023-01-21T16:51:42.982Z,10.25
2023-01-21T16:56:48.926Z,11.95
2023-01-21T17:01:53.244Z,12.70
2023-01-21T17:06:59.210Z,10.63
2023-01-21T17:12:05.878Z,11.57
2023-01-21T17:17:10.813Z,11.98
2023-01-21T17:22:20.053Z,12.50
2023-01-21T17:27:26.379Z,10.80
2023-01-21T17:32:34.866Z,11.77
2023-01-21T17:37:45.479Z,18.77
2023-01-21T17:42:49.324Z,23.10
2023-01-21T17:48:08.608Z,19.00
2023-01-21T17:53:22.916Z,24.30
2023-01-21T17:58:51.194Z,23.83
2023-01-21T18:03:54.693Z,22.13
2023-01-21T18:08:59.528Z,21.65
2023-01-21T18:14:03.064Z,17.38
2023-01-21T18:19:06.731Z,16.33
2023-01-21T18:24:12.809Z,14.50
2023-01-21T18:29:17.314Z,15.20
2023-01-21T18:34:21.158Z,15.20
2023-01-21T18:39:26.094Z,16.38
2023-01-21T18:44:29.493Z,15.60
2023-01-21T18:49:32.950Z,15.43
2023-01-21T18:54:37.864Z,15.30
2023-01-21T18:59:42.244Z,17.02
2023-01-21T19:04:46.531Z,17.02
2023-01-21T19:09:51.459Z,16.45
2023-01-21T19:14:56.103Z,19.50
2023-01-21T19:19:59.734Z,22.70
2023-01-21T19:25:05.572Z,29.15
2023-01-21T19:30:23.934Z,30.90
2023-01-21T19:35:30.694Z,25.83
2023-01-21T19:40:35.929Z,31.02
2023-01-21T19:45:39.685Z,25.77
2023-01-21T19:50:44.029Z,22.67
2023-01-21T19:55:50.835Z,23.77
2023-01-21T20:00:54.727Z,20.33
2023-01-21T20:06:01.519Z,21.05
2023-01-21T20:11:07.300Z,21.63
2023-01-21T20:16:16.726Z,24.13
2023-01-21T20:21:20.750Z,20.70
2023-01-21T20:26:28.573Z,21.83
2023-01-21T20:31:32.462Z,21.70
2023-01-21T20:36:38.287Z,22.48
2023-01-21T20:41:43.875Z,24.27
2023-01-21T20:46:47.602Z,21.95
2023-01-21T20:51:51.318Z,22.05
2023-01-21T20:56:56.090Z,22.27
2023-01-21T21:01:59.525Z,22.63
2023-01-21T21:07:03.061Z,25.13
2023-01-21T21:12:07.886Z,23.25
2023-01-21T21:17:12.736Z,23.50
2023-01-21T21:22:16.395Z,20.95
2023-01-21T21:27:21.298Z,22.92
2023-01-21T21:32:24.716Z,24.10
2023-01-21T21:37:28.680Z,22.58
2023-01-21T21:42:50.756Z,25.05
2023-01-21T21:48:11.801Z,22.95
2023-01-21T21:53:15.212Z,24.27
2023-01-21T21:58:19.952Z,24.27
2023-01-21T22:03:23.399Z,23.17
2023-01-21T22:08:29.437Z,26.13
2023-01-21T22:13:37.441Z,23.27
2023-01-21T22:18:41.658Z,24.60
2023-01-21T22:23:45.418Z,27.95
2023-01-21T22:28:51.281Z,24.80
2023-01-21T22:33:55.500Z,23.55
2023-01-21T22:39:00.212Z,22.92
2023-01-21T22:44:05.206Z,24.40
2023-01-21T22:49:08.878Z,21.52
2023-01-21T22:54:12.424Z,25.63
2023-01-21T22:59:17.216Z,26.60
2023-01-21T23:04:20.672Z,23.13
2023-01-21T23:09:24.305Z,22.88
2023-01-21T23:14:29.125Z,23.45
2023-01-21T23:19:32.642Z,24.25
2023-01-21T23:24:36.151Z,23.60
2023-01-21T23:29:40.963Z,22.63
2023-01-21T23:34:44.421Z,24.25
2023-01-21T23:39:48.387Z,25.10
2023-01-21T23:44:53.396Z,26.15
2023-01-21T23:49:56.911Z,25.98
2023-01-21T23:55:00.378Z,26.30
